sensor_id;sensor_type;location;lat;lon;timestamp;temperature;humidity
31975;DHT22;18500;43.618;1.474;2022-11-30T07:03:47;4.50;99.90
31975;DHT22;18500;43.618;1.474;2022-11-30T07:06:15;4.50;99.90
31975;DHT22;18500;43.618;1.474;2022-11-30T07:08:41;4.60;99.90
31975;DHT22;18500;43.618;1.474;2022-11-30T07:11:08;4.70;99.90
31975;DHT22;18500;43.618;1.474;2022-11-30T07:13:35;4.80;99.90
31975;DHT22;18500;43.618;1.474;2022-11-30T07:16:05;4.80;99.90
31975;DHT22;18500;43.618;1.474;2022-11-30T07:18:31;4.80;99.90
31975;DHT22;18500;43.618;1.474;2022-11-30T07:20:58;4.90;99.90
31975;DHT22;18500;43.618;1.474;2022-11-30T07:23:25;4.90;99.90
31975;DHT22;18500;43.618;1.474;2022-11-30T07:26:10;4.90;99.90
31975;DHT22;18500;43.618;1.474;2022-11-30T07:28:41;4.90;99.90
31975;DHT22;18500;43.618;1.474;2022-11-30T07:31:27;4.90;99.90
31975;DHT22;18500;43.618;1.474;2022-11-30T07:33:54;4.90;99.90
31975;DHT22;18500;43.618;1.474;2022-11-30T07:36:21;4.90;99.90
31975;DHT22;18500;43.618;1.474;2022-11-30T07:38:48;4.90;99.90
31975;DHT22;18500;43.618;1.474;2022-11-30T07:41:13;4.90;99.90
31975;DHT22;18500;43.618;1.474;2022-11-30T07:43:40;4.90;99.90
31975;DHT22;18500;43.618;1.474;2022-11-30T07:46:05;5.00;99.90
31975;DHT22;18500;43.618;1.474;2022-11-30T07:48:31;5.00;99.90
31975;DHT22;18500;43.618;1.474;2022-11-30T07:51:06;4.90;99.90
31975;DHT22;18500;43.618;1.474;2022-11-30T07:53:33;4.70;98.40
31975;DHT22;18500;43.618;1.474;2022-11-30T07:56:06;4.60;98.40
31975;DHT22;18500;43.618;1.474;2022-11-30T07:58:32;4.60;99.00
31975;DHT22;18500;43.618;1.474;2022-11-30T08:01:10;4.50;97.40
31975;DHT22;18500;43.618;1.474;2022-11-30T08:03:36;4.50;97.40
31975;DHT22;18500;43.618;1.474;2022-11-30T08:06:07;4.50;97.80
31975;DHT22;18500;43.618;1.474;2022-11-30T08:08:35;4.50;97.70
31975;DHT22;18500;43.618;1.474;2022-11-30T08:11:02;4.50;97.90
31975;DHT22;18500;43.618;1.474;2022-11-30T08:13:28;4.50;98.90
31975;DHT22;18500;43.618;1.474;2022-11-30T08:15:55;4.60;98.00
31975;DHT22;18500;43.618;1.474;2022-11-30T08:18:20;4.80;98.60
31975;DHT22;18500;43.618;1.474;2022-11-30T08:20:46;4.70;96.00
31975;DHT22;18500;43.618;1.474;2022-11-30T08:23:12;4.70;95.60
31975;DHT22;18500;43.618;1.474;2022-11-30T08:25:37;4.70;94.30
31975;DHT22;18500;43.618;1.474;2022-11-30T08:28:03;4.70;94.00
31975;DHT22;18500;43.618;1.474;2022-11-30T08:30:29;4.80;93.00
31975;DHT22;18500;43.618;1.474;2022-11-30T08:32:56;4.90;94.20
31975;DHT22;18500;43.618;1.474;2022-11-30T08:35:22;4.80;93.30
31975;DHT22;18500;43.618;1.474;2022-11-30T08:37:48;4.80;93.60
31975;DHT22;18500;43.618;1.474;2022-11-30T08:40:13;4.80;94.30
31975;DHT22;18500;43.618;1.474;2022-11-30T08:42:39;4.80;94.10
31975;DHT22;18500;43.618;1.474;2022-11-30T08:45:05;4.90;94.30
31975;DHT22;18500;43.618;1.474;2022-11-30T08:47:31;4.90;92.80
31975;DHT22;18500;43.618;1.474;2022-11-30T08:49:57;4.90;92.30
31975;DHT22;18500;43.618;1.474;2022-11-30T08:52:23;4.90;92.30
31975;DHT22;18500;43.618;1.474;2022-11-30T08:54:49;5.00;94.10
31975;DHT22;18500;43.618;1.474;2022-11-30T08:57:16;4.90;92.60
31975;DHT22;18500;43.618;1.474;2022-11-30T08:59:43;5.00;93.00
31975;DHT22;18500;43.618;1.474;2022-11-30T09:02:10;5.00;92.60
31975;DHT22;18500;43.618;1.474;2022-11-30T09:04:36;4.90;91.40
31975;DHT22;18500;43.618;1.474;2022-11-30T09:07:02;4.90;91.00
31975;DHT22;18500;43.618;1.474;2022-11-30T09:09:28;4.90;91.30
31975;DHT22;18500;43.618;1.474;2022-11-30T09:11:54;5.00;90.00
31975;DHT22;18500;43.618;1.474;2022-11-30T09:14:20;5.00;84.90
31975;DHT22;18500;43.618;1.474;2022-11-30T09:16:45;5.20;86.30
31975;DHT22;18500;43.618;1.474;2022-11-30T09:19:11;5.20;95.50
31975;DHT22;18500;43.618;1.474;2022-11-30T09:21:37;5.30;79.00
31975;DHT22;18500;43.618;1.474;2022-11-30T09:24:02;5.20;77.00
31975;DHT22;18500;43.618;1.474;2022-11-30T09:26:28;5.20;77.00
31975;DHT22;18500;43.618;1.474;2022-11-30T09:28:54;5.20;78.40
31975;DHT22;18500;43.618;1.474;2022-11-30T09:31:22;5.40;82.70
31975;DHT22;18500;43.618;1.474;2022-11-30T09:33:48;5.30;81.20
31975;DHT22;18500;43.618;1.474;2022-11-30T09:36:16;5.50;83.70
31975;DHT22;18500;43.618;1.474;2022-11-30T09:38:43;5.40;82.90
31975;DHT22;18500;43.618;1.474;2022-11-30T09:49:49;5.10;84.60
31975;DHT22;18500;43.618;1.474;2022-11-30T09:52:27;5.20;79.00
31975;DHT22;18500;43.618;1.474;2022-11-30T09:54:58;4.80;83.30
31975;DHT22;18500;43.618;1.474;2022-11-30T09:57:45;5.00;85.10
31975;DHT22;18500;43.618;1.474;2022-11-30T10:00:18;5.20;89.40
31975;DHT22;18500;43.618;1.474;2022-11-30T10:02:48;5.40;88.30
31975;DHT22;18500;43.618;1.474;2022-11-30T10:08:05;5.70;84.70
31975;DHT22;18500;43.618;1.474;2022-11-30T10:10:54;5.70;79.00
31975;DHT22;18500;43.618;1.474;2022-11-30T10:19:27;5.80;77.20
31975;DHT22;18500;43.618;1.474;2022-11-30T10:27:54;5.50;72.80
31975;DHT22;18500;43.618;1.474;2022-11-30T10:30:31;5.40;69.70
31975;DHT22;18500;43.618;1.474;2022-11-30T10:33:02;5.40;69.50
31975;DHT22;18500;43.618;1.474;2022-11-30T10:37:56;5.30;66.20
31975;DHT22;18500;43.618;1.474;2022-11-30T10:40:36;5.40;67.30
31975;DHT22;18500;43.618;1.474;2022-11-30T10:45:47;5.50;65.80
31975;DHT22;18500;43.618;1.474;2022-11-30T10:50:44;5.50;61.50
31975;DHT22;18500;43.618;1.474;2022-11-30T10:53:10;5.50;63.20
31975;DHT22;18500;43.618;1.474;2022-11-30T10:55:42;5.40;63.80
31975;DHT22;18500;43.618;1.474;2022-11-30T10:58:11;5.50;64.90
31975;DHT22;18500;43.618;1.474;2022-11-30T11:00:44;5.40;63.90
31975;DHT22;18500;43.618;1.474;2022-11-30T11:03:23;5.50;66.60
31975;DHT22;18500;43.618;1.474;2022-11-30T11:06:13;5.60;61.80
31975;DHT22;18500;43.618;1.474;2022-11-30T11:08:40;5.60;62.90
31975;DHT22;18500;43.618;1.474;2022-11-30T11:11:34;5.70;59.70
31975;DHT22;18500;43.618;1.474;2022-11-30T11:14:15;5.70;56.50
31975;DHT22;18500;43.618;1.474;2022-11-30T11:16:50;5.70;54.50
31975;DHT22;18500;43.618;1.474;2022-11-30T11:19:31;5.70;54.40
31975;DHT22;18500;43.618;1.474;2022-11-30T11:21:59;5.60;49.60
31975;DHT22;18500;43.618;1.474;2022-11-30T11:24:26;5.70;50.60
31975;DHT22;18500;43.618;1.474;2022-11-30T11:26:54;5.70;45.10
31975;DHT22;18500;43.618;1.474;2022-11-30T11:29:29;5.70;43.30
31975;DHT22;18500;43.618;1.474;2022-11-30T11:34:33;5.70;37.40
31975;DHT22;18500;43.618;1.474;2022-11-30T11:37:19;5.80;36.90
31975;DHT22;18500;43.618;1.474;2022-11-30T11:40:00;5.70;32.00
31975;DHT22;18500;43.618;1.474;2022-11-30T11:42:35;5.70;34.90
31975;DHT22;18500;43.618;1.474;2022-11-30T11:45:03;5.70;32.60
31975;DHT22;18500;43.618;1.474;2022-11-30T11:47:39;5.80;30.00
31975;DHT22;18500;43.618;1.474;2022-11-30T11:50:26;5.80;29.50
31975;DHT22;18500;43.618;1.474;2022-11-30T11:55:32;6.00;28.90
31975;DHT22;18500;43.618;1.474;2022-11-30T11:58:01;6.00;28.30
31975;DHT22;18500;43.618;1.474;2022-11-30T12:00:27;6.10;27.90
31975;DHT22;18500;43.618;1.474;2022-11-30T12:03:13;6.00;23.70
31975;DHT22;18500;43.618;1.474;2022-11-30T12:05:55;5.90;23.90
31975;DHT22;18500;43.618;1.474;2022-11-30T12:08:43;6.10;27.80
31975;DHT22;18500;43.618;1.474;2022-11-30T12:11:24;6.00;23.80
31975;DHT22;18500;43.618;1.474;2022-11-30T12:13:50;6.10;25.60
31975;DHT22;18500;43.618;1.474;2022-11-30T12:16:23;6.20;26.60
31975;DHT22;18500;43.618;1.474;2022-11-30T12:19:09;6.30;25.60
31975;DHT22;18500;43.618;1.474;2022-11-30T12:27:08;6.30;24.80
31975;DHT22;18500;43.618;1.474;2022-11-30T12:32:19;6.30;21.00
31975;DHT22;18500;43.618;1.474;2022-11-30T12:40:41;6.40;16.50
31975;DHT22;18500;43.618;1.474;2022-11-30T12:45:52;6.50;16.90
31975;DHT22;18500;43.618;1.474;2022-11-30T12:48:51;6.60;14.90
31975;DHT22;18500;43.618;1.474;2022-11-30T12:51:32;6.50;15.60
31975;DHT22;18500;43.618;1.474;2022-11-30T12:54:32;6.40;15.90
31975;DHT22;18500;43.618;1.474;2022-11-30T13:03:05;6.00;20.30
31975;DHT22;18500;43.618;1.474;2022-11-30T13:05:42;6.00;20.40
31975;DHT22;18500;43.618;1.474;2022-11-30T13:08:21;6.10;21.90
31975;DHT22;18500;43.618;1.474;2022-11-30T13:11:03;6.00;20.70
31975;DHT22;18500;43.618;1.474;2022-11-30T13:13:33;6.10;20.80
31975;DHT22;18500;43.618;1.474;2022-11-30T13:16:03;6.10;21.60
31975;DHT22;18500;43.618;1.474;2022-11-30T13:18:30;6.10;21.50
31975;DHT22;18500;43.618;1.474;2022-11-30T13:24:24;6.10;23.30
31975;DHT22;18500;43.618;1.474;2022-11-30T13:32:24;6.10;21.60
31975;DHT22;18500;43.618;1.474;2022-11-30T13:34:50;6.00;34.80
31975;DHT22;18500;43.618;1.474;2022-11-30T13:37:20;6.00;21.00
31975;DHT22;18500;43.618;1.474;2022-11-30T13:39:47;6.00;21.70
31975;DHT22;18500;43.618;1.474;2022-11-30T13:42:25;6.10;20.80
31975;DHT22;18500;43.618;1.474;2022-11-30T13:44:53;6.00;20.70
31975;DHT22;18500;43.618;1.474;2022-11-30T13:47:26;6.10;21.40
31975;DHT22;18500;43.618;1.474;2022-11-30T13:50:05;6.10;21.70
31975;DHT22;18500;43.618;1.474;2022-11-30T14:02:56;5.90;22.50
31975;DHT22;18500;43.618;1.474;2022-11-30T14:05:37;5.90;23.90
31975;DHT22;18500;43.618;1.474;2022-11-30T14:10:42;5.70;22.60
31975;DHT22;18500;43.618;1.474;2022-11-30T14:21:00;5.50;23.50
31975;DHT22;18500;43.618;1.474;2022-11-30T14:26:14;5.70;24.20
31975;DHT22;18500;43.618;1.474;2022-11-30T14:31:24;5.70;24.20
31975;DHT22;18500;43.618;1.474;2022-11-30T14:33:54;5.70;24.00
31975;DHT22;18500;43.618;1.474;2022-11-30T14:36:22;5.70;24.40
31975;DHT22;18500;43.618;1.474;2022-11-30T14:38:51;5.70;25.80
31975;DHT22;18500;43.618;1.474;2022-11-30T14:41:26;5.80;25.70
31975;DHT22;18500;43.618;1.474;2022-11-30T14:44:05;5.70;24.80
31975;DHT22;18500;43.618;1.474;2022-11-30T14:46:31;5.80;26.80
31975;DHT22;18500;43.618;1.474;2022-11-30T14:49:18;5.70;25.00
31975;DHT22;18500;43.618;1.474;2022-11-30T14:52:00;5.80;26.90
31975;DHT22;18500;43.618;1.474;2022-11-30T14:54:59;5.80;26.40
31975;DHT22;18500;43.618;1.474;2022-11-30T14:57:40;5.90;28.60
31975;DHT22;18500;43.618;1.474;2022-11-30T15:00:16;5.80;24.50
31975;DHT22;18500;43.618;1.474;2022-11-30T15:02:43;5.80;25.80
31975;DHT22;18500;43.618;1.474;2022-11-30T15:05:15;5.80;25.50
31975;DHT22;18500;43.618;1.474;2022-11-30T15:07:44;5.80;26.70
31975;DHT22;18500;43.618;1.474;2022-11-30T15:10:26;5.80;23.70
31975;DHT22;18500;43.618;1.474;2022-11-30T15:12:53;5.70;25.00
31975;DHT22;18500;43.618;1.474;2022-11-30T15:15:24;5.80;26.40
31975;DHT22;18500;43.618;1.474;2022-11-30T15:20:42;5.70;23.70
31975;DHT22;18500;43.618;1.474;2022-11-30T15:23:12;5.50;23.80
31975;DHT22;18500;43.618;1.474;2022-11-30T15:25:51;5.40;24.40
31975;DHT22;18500;43.618;1.474;2022-11-30T15:28:25;5.40;25.50
31975;DHT22;18500;43.618;1.474;2022-11-30T15:30:56;5.40;25.60
31975;DHT22;18500;43.618;1.474;2022-11-30T15:33:23;5.30;24.70
31975;DHT22;18500;43.618;1.474;2022-11-30T15:35:53;5.20;24.50
31975;DHT22;18500;43.618;1.474;2022-11-30T15:38:20;5.20;24.80
31975;DHT22;18500;43.618;1.474;2022-11-30T15:40:48;5.20;25.30
31975;DHT22;18500;43.618;1.474;2022-11-30T15:43:23;5.20;26.40
31975;DHT22;18500;43.618;1.474;2022-11-30T15:45:55;5.20;25.60
31975;DHT22;18500;43.618;1.474;2022-11-30T15:48:29;5.20;26.20
31975;DHT22;18500;43.618;1.474;2022-11-30T15:50:56;5.10;25.80
31975;DHT22;18500;43.618;1.474;2022-11-30T15:53:25;5.10;27.50
31975;DHT22;18500;43.618;1.474;2022-11-30T15:55:56;5.10;27.60
31975;DHT22;18500;43.618;1.474;2022-11-30T16:01:03;5.10;29.30
31975;DHT22;18500;43.618;1.474;2022-11-30T16:03:34;5.10;30.80
31975;DHT22;18500;43.618;1.474;2022-11-30T16:06:02;5.20;32.00
31975;DHT22;18500;43.618;1.474;2022-11-30T16:08:31;5.10;30.20
31975;DHT22;18500;43.618;1.474;2022-11-30T16:10:57;5.00;32.40
31975;DHT22;18500;43.618;1.474;2022-11-30T16:13:23;5.00;30.10
31975;DHT22;18500;43.618;1.474;2022-11-30T16:15:54;4.90;31.40
31975;DHT22;18500;43.618;1.474;2022-11-30T16:18:25;4.90;31.30
31975;DHT22;18500;43.618;1.474;2022-11-30T16:21:00;5.00;33.30
31975;DHT22;18500;43.618;1.474;2022-11-30T16:23:27;5.10;32.90
31975;DHT22;18500;43.618;1.474;2022-11-30T16:25:52;5.00;33.00
31975;DHT22;18500;43.618;1.474;2022-11-30T16:28:19;5.00;33.30
31975;DHT22;18500;43.618;1.474;2022-11-30T16:30:46;5.00;50.30
31975;DHT22;18500;43.618;1.474;2022-11-30T16:33:13;5.00;35.20
31975;DHT22;18500;43.618;1.474;2022-11-30T16:35:42;5.00;35.00
31975;DHT22;18500;43.618;1.474;2022-11-30T16:38:10;5.00;34.40
31975;DHT22;18500;43.618;1.474;2022-11-30T16:40:36;5.00;33.80
31975;DHT22;18500;43.618;1.474;2022-11-30T16:43:01;4.90;34.30
31975;DHT22;18500;43.618;1.474;2022-11-30T16:45:34;4.90;36.90
31975;DHT22;18500;43.618;1.474;2022-11-30T16:48:00;4.90;36.20
31975;DHT22;18500;43.618;1.474;2022-11-30T16:50:26;4.90;36.80
31975;DHT22;18500;43.618;1.474;2022-11-30T16:52:52;4.90;38.60
31975;DHT22;18500;43.618;1.474;2022-11-30T16:55:20;4.90;39.10
31975;DHT22;18500;43.618;1.474;2022-11-30T16:57:46;5.00;38.90
31975;DHT22;18500;43.618;1.474;2022-11-30T17:00:16;5.00;36.40
31975;DHT22;18500;43.618;1.474;2022-11-30T17:02:47;4.90;35.50
31975;DHT22;18500;43.618;1.474;2022-11-30T17:05:14;4.80;36.70
31975;DHT22;18500;43.618;1.474;2022-11-30T17:07:40;4.90;39.90
31975;DHT22;18500;43.618;1.474;2022-11-30T17:10:07;4.80;37.70
31975;DHT22;18500;43.618;1.474;2022-11-30T17:12:33;4.80;40.20
31975;DHT22;18500;43.618;1.474;2022-11-30T17:15:00;4.80;40.50
31975;DHT22;18500;43.618;1.474;2022-11-30T17:17:26;4.80;39.70
31975;DHT22;18500;43.618;1.474;2022-11-30T17:19:51;4.80;40.80
31975;DHT22;18500;43.618;1.474;2022-11-30T17:22:18;4.80;39.80
31975;DHT22;18500;43.618;1.474;2022-11-30T17:24:43;4.80;40.50
31975;DHT22;18500;43.618;1.474;2022-11-30T17:27:10;4.80;43.90
31975;DHT22;18500;43.618;1.474;2022-11-30T17:29:37;4.90;47.20
31975;DHT22;18500;43.618;1.474;2022-11-30T17:32:03;5.00;46.40
31975;DHT22;18500;43.618;1.474;2022-11-30T17:34:28;5.00;45.90
31975;DHT22;18500;43.618;1.474;2022-11-30T17:36:54;4.90;47.30
31975;DHT22;18500;43.618;1.474;2022-11-30T17:39:22;5.00;50.60
31975;DHT22;18500;43.618;1.474;2022-11-30T17:41:48;4.80;45.20
31975;DHT22;18500;43.618;1.474;2022-11-30T17:44:13;4.70;44.80
31975;DHT22;18500;43.618;1.474;2022-11-30T17:46:39;4.60;45.00
31975;DHT22;18500;43.618;1.474;2022-11-30T17:49:05;4.60;48.40
31975;DHT22;18500;43.618;1.474;2022-11-30T17:51:31;4.50;47.40
31975;DHT22;18500;43.618;1.474;2022-11-30T17:53:57;4.50;47.90
31975;DHT22;18500;43.618;1.474;2022-11-30T17:56:22;4.50;50.90
31975;DHT22;18500;43.618;1.474;2022-11-30T17:58:48;4.50;50.40
31975;DHT22;18500;43.618;1.474;2022-11-30T18:01:18;4.50;49.30
31975;DHT22;18500;43.618;1.474;2022-11-30T18:03:44;4.50;49.90
31975;DHT22;18500;43.618;1.474;2022-11-30T18:06:10;4.50;50.00
31975;DHT22;18500;43.618;1.474;2022-11-30T18:08:36;4.50;49.80
31975;DHT22;18500;43.618;1.474;2022-11-30T18:11:10;4.50;51.20
31975;DHT22;18500;43.618;1.474;2022-11-30T18:13:37;4.60;53.40
31975;DHT22;18500;43.618;1.474;2022-11-30T18:16:12;4.60;52.60
31975;DHT22;18500;43.618;1.474;2022-11-30T18:18:38;4.70;53.90
31975;DHT22;18500;43.618;1.474;2022-11-30T18:21:12;4.70;53.90
31975;DHT22;18500;43.618;1.474;2022-11-30T18:23:38;4.70;52.70
31975;DHT22;18500;43.618;1.474;2022-11-30T18:26:07;4.70;51.40
31975;DHT22;18500;43.618;1.474;2022-11-30T18:28:34;4.60;52.80
31975;DHT22;18500;43.618;1.474;2022-11-30T18:30:59;4.60;53.90
31975;DHT22;18500;43.618;1.474;2022-11-30T18:33:25;4.50;53.20
31975;DHT22;18500;43.618;1.474;2022-11-30T18:35:51;4.50;55.90
31975;DHT22;18500;43.618;1.474;2022-11-30T18:38:16;4.60;56.30
31975;DHT22;18500;43.618;1.474;2022-11-30T18:40:42;4.60;58.80
31975;DHT22;18500;43.618;1.474;2022-11-30T18:43:08;4.70;65.60
31975;DHT22;18500;43.618;1.474;2022-11-30T18:45:34;4.80;69.70
31975;DHT22;18500;43.618;1.474;2022-11-30T18:48:00;4.80;67.40
31975;DHT22;18500;43.618;1.474;2022-11-30T18:50:27;4.90;68.40
31975;DHT22;18500;43.618;1.474;2022-11-30T18:52:55;4.90;69.30
31975;DHT22;18500;43.618;1.474;2022-11-30T18:55:22;5.00;67.60
31975;DHT22;18500;43.618;1.474;2022-11-30T18:57:48;5.00;67.90
31975;DHT22;18500;43.618;1.474;2022-11-30T19:00:14;5.00;66.50
31975;DHT22;18500;43.618;1.474;2022-11-30T19:02:42;5.00;66.90
31975;DHT22;18500;43.618;1.474;2022-11-30T19:05:08;5.10;63.70
31975;DHT22;18500;43.618;1.474;2022-11-30T19:07:34;5.10;63.70
31975;DHT22;18500;43.618;1.474;2022-11-30T19:10:07;5.10;65.00
31975;DHT22;18500;43.618;1.474;2022-11-30T19:12:33;5.20;65.30
31975;DHT22;18500;43.618;1.474;2022-11-30T19:15:03;5.00;57.70
31975;DHT22;18500;43.618;1.474;2022-11-30T19:17:32;4.90;58.60
31975;DHT22;18500;43.618;1.474;2022-11-30T19:19:57;4.90;59.10
31975;DHT22;18500;43.618;1.474;2022-11-30T19:22:25;4.90;57.10
31975;DHT22;18500;43.618;1.474;2022-11-30T19:24:54;4.70;55.40
31975;DHT22;18500;43.618;1.474;2022-11-30T19:27:20;4.70;57.00
31975;DHT22;18500;43.618;1.474;2022-11-30T19:29:45;4.70;57.00
31975;DHT22;18500;43.618;1.474;2022-11-30T19:32:11;4.60;57.20
31975;DHT22;18500;43.618;1.474;2022-11-30T19:34:37;4.60;60.10
31975;DHT22;18500;43.618;1.474;2022-11-30T19:37:02;4.60;81.70
31975;DHT22;18500;43.618;1.474;2022-11-30T19:39:28;4.70;61.40
31975;DHT22;18500;43.618;1.474;2022-11-30T19:41:53;4.60;59.10
31975;DHT22;18500;43.618;1.474;2022-11-30T19:44:19;4.60;63.70
31975;DHT22;18500;43.618;1.474;2022-11-30T19:46:45;4.60;60.90
31975;DHT22;18500;43.618;1.474;2022-11-30T19:49:11;4.70;57.60
31975;DHT22;18500;43.618;1.474;2022-11-30T19:51:36;4.60;59.40
31975;DHT22;18500;43.618;1.474;2022-11-30T19:54:02;4.70;60.10
31975;DHT22;18500;43.618;1.474;2022-11-30T19:56:30;4.70;59.00
31975;DHT22;18500;43.618;1.474;2022-11-30T19:58:57;4.70;61.00
31975;DHT22;18500;43.618;1.474;2022-11-30T20:01:24;4.70;59.10
31975;DHT22;18500;43.618;1.474;2022-11-30T20:03:52;4.60;58.20
31975;DHT22;18500;43.618;1.474;2022-11-30T20:06:18;4.70;60.10
31975;DHT22;18500;43.618;1.474;2022-11-30T20:08:44;4.70;58.50
31975;DHT22;18500;43.618;1.474;2022-11-30T20:11:12;4.60;58.70
31975;DHT22;18500;43.618;1.474;2022-11-30T20:13:38;4.60;58.20
31975;DHT22;18500;43.618;1.474;2022-11-30T20:16:15;4.60;58.50
31975;DHT22;18500;43.618;1.474;2022-11-30T20:18:42;4.70;60.20
31975;DHT22;18500;43.618;1.474;2022-11-30T20:21:14;4.70;59.90
31975;DHT22;18500;43.618;1.474;2022-11-30T20:23:41;4.70;59.70
31975;DHT22;18500;43.618;1.474;2022-11-30T20:26:19;4.70;59.50
31975;DHT22;18500;43.618;1.474;2022-11-30T20:28:46;4.70;61.00
31975;DHT22;18500;43.618;1.474;2022-11-30T20:31:13;4.70;59.10
31975;DHT22;18500;43.618;1.474;2022-11-30T20:33:40;4.70;58.60
31975;DHT22;18500;43.618;1.474;2022-11-30T20:36:07;4.80;64.50
31975;DHT22;18500;43.618;1.474;2022-11-30T20:38:34;4.90;68.50
31975;DHT22;18500;43.618;1.474;2022-11-30T20:41:00;5.00;72.00
31975;DHT22;18500;43.618;1.474;2022-11-30T20:43:26;5.10;71.50
31975;DHT22;18500;43.618;1.474;2022-11-30T20:45:51;5.10;73.50
31975;DHT22;18500;43.618;1.474;2022-11-30T20:48:18;5.20;68.50
31975;DHT22;18500;43.618;1.474;2022-11-30T20:50:44;5.20;68.20
31975;DHT22;18500;43.618;1.474;2022-11-30T20:53:10;5.10;67.60
31975;DHT22;18500;43.618;1.474;2022-11-30T20:55:36;5.20;66.10
31975;DHT22;18500;43.618;1.474;2022-11-30T20:58:02;5.20;67.40
31975;DHT22;18500;43.618;1.474;2022-11-30T21:00:27;5.10;67.20
31975;DHT22;18500;43.618;1.474;2022-11-30T21:02:53;5.10;66.00
31975;DHT22;18500;43.618;1.474;2022-11-30T21:05:19;5.20;69.40
31975;DHT22;18500;43.618;1.474;2022-11-30T21:07:48;5.20;70.10
31975;DHT22;18500;43.618;1.474;2022-11-30T21:10:14;5.20;67.30
31975;DHT22;18500;43.618;1.474;2022-11-30T21:12:41;5.20;68.10
31975;DHT22;18500;43.618;1.474;2022-11-30T21:15:08;5.20;69.90
31975;DHT22;18500;43.618;1.474;2022-11-30T21:17:34;5.20;69.10
31975;DHT22;18500;43.618;1.474;2022-11-30T21:20:00;5.20;67.20
31975;DHT22;18500;43.618;1.474;2022-11-30T21:22:27;5.20;63.90
31975;DHT22;18500;43.618;1.474;2022-11-30T21:24:53;5.10;65.70
31975;DHT22;18500;43.618;1.474;2022-11-30T21:27:19;5.10;65.20
31975;DHT22;18500;43.618;1.474;2022-11-30T21:29:45;5.10;63.60
31975;DHT22;18500;43.618;1.474;2022-11-30T21:32:11;5.10;63.70
31975;DHT22;18500;43.618;1.474;2022-11-30T21:34:37;4.90;59.70
31975;DHT22;18500;43.618;1.474;2022-11-30T21:37:03;4.80;60.30
31975;DHT22;18500;43.618;1.474;2022-11-30T21:39:28;4.80;61.50
31975;DHT22;18500;43.618;1.474;2022-11-30T21:41:54;4.80;62.80
31975;DHT22;18500;43.618;1.474;2022-11-30T21:44:20;4.80;61.70
31975;DHT22;18500;43.618;1.474;2022-11-30T21:46:45;4.70;59.40
31975;DHT22;18500;43.618;1.474;2022-11-30T21:49:13;4.70;60.80
31975;DHT22;18500;43.618;1.474;2022-11-30T21:51:39;4.70;63.60
31975;DHT22;18500;43.618;1.474;2022-11-30T21:54:06;4.60;60.90
31975;DHT22;18500;43.618;1.474;2022-11-30T21:56:35;4.70;64.60
31975;DHT22;18500;43.618;1.474;2022-11-30T21:59:04;4.70;61.70
31975;DHT22;18500;43.618;1.474;2022-11-30T22:01:38;4.70;64.60
31975;DHT22;18500;43.618;1.474;2022-11-30T22:04:06;4.70;62.50
31975;DHT22;18500;43.618;1.474;2022-11-30T22:06:34;4.60;63.10
31975;DHT22;18500;43.618;1.474;2022-11-30T22:09:01;4.60;60.10
31975;DHT22;18500;43.618;1.474;2022-11-30T22:11:32;4.60;63.50
31975;DHT22;18500;43.618;1.474;2022-11-30T22:13:58;4.70;62.10
31975;DHT22;18500;43.618;1.474;2022-11-30T22:16:25;4.60;60.50
31975;DHT22;18500;43.618;1.474;2022-11-30T22:18:53;4.70;63.30
